KBOK/BOK METAR and TAF weather

Enter ICAO airport designator
Station Type Date Time Source
KBOK METAR 2021/03/02 16:56 UTC NOAA

KBOK 021656Z AUTO 28003KT 10SM CLR 09/05 A3004 RMK AO2 SLP173 T00890050 PNO $


Station Type Date Time Source
KBOK Decoded METAR 2021/03/02 16:56 UTC NOAA

Brookings, Brookings Airport, OR, United States (KBOK) 42-04-28N 124-17-24W
Mar 02, 2021 - 11:56 AM EST / 2021.03.02 1656 UTC
Wind: from the W (280 degrees) at 3 MPH (3 KT):0
Visibility: 10 mile(s):0
Sky conditions: clear
Temperature: 48.0 F (8.9 C)
Dew Point: 41.0 F (5.0 C)
Relative Humidity: 76%
Pressure (altimeter): 30.04 in. Hg (1017 hPa)
ob: KBOK 021656Z AUTO 28003KT 10SM CLR 09/05 A3004 RMK AO2 SLP173 T00890050 PNO
cycle: 17

Station Type Date Time Source
KBOK TAF UTC NOAA

Error!

Example: see airport list